createdAt,value
2019-03-28T00:01:14.058Z,93.60
2019-03-28T00:03:44.923Z,93.70
2019-03-28T00:06:16.247Z,93.70
2019-03-28T00:08:49.489Z,93.70
2019-03-28T00:11:20.344Z,93.80
2019-03-28T00:13:51.666Z,93.80
2019-03-28T00:16:23.206Z,94.00
2019-03-28T00:18:54.106Z,94.10
2019-03-28T00:21:24.988Z,94.20
2019-03-28T00:24:09.663Z,94.60
2019-03-28T00:26:40.593Z,94.80
2019-03-28T00:29:11.520Z,95.50
2019-03-28T00:31:42.430Z,95.30
2019-03-28T00:34:14.888Z,95.50
2019-03-28T00:36:45.773Z,95.60
2019-03-28T00:39:16.664Z,95.80
2019-03-28T00:41:47.580Z,95.90
2019-03-28T00:44:19.190Z,95.90
2019-03-28T00:46:50.058Z,96.10
2019-03-28T00:49:21.054Z,96.10
2019-03-28T00:51:51.925Z,96.10
2019-03-28T00:54:22.808Z,96.20
2019-03-28T00:56:54.128Z,96.20
2019-03-28T00:59:26.139Z,96.30
2019-03-28T01:01:56.988Z,96.30
2019-03-28T01:04:27.867Z,96.40
2019-03-28T01:06:58.700Z,96.50
2019-03-28T01:09:29.568Z,96.50
2019-03-28T01:12:00.584Z,96.60
2019-03-28T01:14:41.732Z,96.70
2019-03-28T01:17:12.598Z,96.70
2019-03-28T01:19:43.534Z,96.80
2019-03-28T01:22:14.462Z,96.80
2019-03-28T01:24:45.328Z,96.80
2019-03-28T01:27:16.136Z,96.90
2019-03-28T01:29:48.148Z,97.00
2019-03-28T01:32:19.020Z,97.00
2019-03-28T01:34:49.944Z,97.10
2019-03-28T01:37:20.740Z,97.20
2019-03-28T01:39:51.596Z,97.40
2019-03-28T01:42:22.508Z,97.40
2019-03-28T01:44:53.408Z,97.40
2019-03-28T01:47:24.350Z,97.50
2019-03-28T01:49:55.212Z,97.60
2019-03-28T01:52:26.122Z,97.70
2019-03-28T01:54:57.034Z,97.70
2019-03-28T01:57:27.919Z,97.70
2019-03-28T01:59:59.044Z,97.60
2019-03-28T02:02:30.268Z,97.60
2019-03-28T02:05:01.150Z,97.70
2019-03-28T02:07:32.123Z,97.60
2019-03-28T02:10:03.132Z,97.60
2019-03-28T02:12:33.948Z,97.60
2019-03-28T02:15:06.612Z,97.70
2019-03-28T02:17:37.520Z,97.70
2019-03-28T02:20:08.618Z,97.70
2019-03-28T02:22:39.552Z,97.70
2019-03-28T02:25:10.644Z,97.70
2019-03-28T02:27:41.496Z,97.70
2019-03-28T02:30:12.503Z,97.70
2019-03-28T02:32:43.440Z,97.80
2019-03-28T02:35:14.357Z,97.80
2019-03-28T02:37:45.192Z,97.80
2019-03-28T02:40:16.823Z,97.80
2019-03-28T02:42:47.847Z,97.90
2019-03-28T02:45:18.819Z,97.80
2019-03-28T02:47:49.753Z,97.80
2019-03-28T02:50:20.695Z,98.00
2019-03-28T02:52:51.480Z,97.90
2019-03-28T02:55:23.823Z,97.90
2019-03-28T02:57:54.854Z,98.00
2019-03-28T03:00:25.760Z,98.00
2019-03-28T03:02:56.728Z,98.10
2019-03-28T03:05:27.653Z,98.10
2019-03-28T03:07:59.451Z,98.10
2019-03-28T03:10:30.303Z,98.10
2019-03-28T03:13:01.179Z,98.10
2019-03-28T03:15:33.064Z,98.10
2019-03-28T03:18:03.874Z,98.20
2019-03-28T03:20:34.696Z,98.20
2019-03-28T03:23:05.618Z,98.30
2019-03-28T03:25:36.564Z,98.30
2019-03-28T03:28:07.465Z,98.30
2019-03-28T03:30:38.495Z,98.40
2019-03-28T03:33:09.574Z,98.30
2019-03-28T03:35:40.459Z,98.30
2019-03-28T03:38:11.388Z,98.30
2019-03-28T03:40:42.292Z,98.40
2019-03-28T03:43:13.160Z,98.40
2019-03-28T03:45:44.371Z,98.30
2019-03-28T03:48:15.206Z,98.30
2019-03-28T03:50:46.125Z,98.30
2019-03-28T03:53:16.981Z,98.30
2019-03-28T03:55:47.874Z,98.60
2019-03-28T03:58:19.210Z,98.30
2019-03-28T04:00:53.079Z,98.20
2019-03-28T04:03:23.953Z,98.20
2019-03-28T04:05:54.935Z,98.20
2019-03-28T04:08:27.002Z,98.10
2019-03-28T04:10:58.075Z,98.10
2019-03-28T04:13:30.084Z,98.20
2019-03-28T04:16:01.008Z,98.20
2019-03-28T04:18:34.098Z,98.20
2019-03-28T04:21:05.043Z,98.20
2019-03-28T04:23:35.990Z,98.50
2019-03-28T04:26:06.987Z,98.30
2019-03-28T04:28:45.123Z,98.20
2019-03-28T04:31:16.159Z,98.20
2019-03-28T04:33:47.128Z,98.20
2019-03-28T04:36:18.051Z,98.20
2019-03-28T04:38:49.337Z,98.60
2019-03-28T04:41:20.225Z,98.20
2019-03-28T04:43:54.004Z,98.20
2019-03-28T04:46:23.744Z,98.20
2019-03-28T04:48:54.731Z,98.10
2019-03-28T04:51:25.682Z,98.10
2019-03-28T04:53:56.637Z,98.10
2019-03-28T04:56:27.538Z,98.10
2019-03-28T04:58:58.475Z,98.10
2019-03-28T05:01:29.425Z,98.20
2019-03-28T05:04:00.291Z,98.20
2019-03-28T05:06:31.245Z,98.20
2019-03-28T05:09:02.198Z,98.20
2019-03-28T05:11:34.595Z,98.10
2019-03-28T05:14:05.553Z,98.10
2019-03-28T05:16:36.522Z,98.10
2019-03-28T05:19:07.369Z,98.00
2019-03-28T05:21:38.324Z,98.00
2019-03-28T05:24:09.220Z,97.90
2019-03-28T05:26:40.182Z,97.80
2019-03-28T05:29:11.028Z,97.70
2019-03-28T05:31:41.988Z,97.80
2019-03-28T05:34:13.926Z,97.80
2019-03-28T05:36:44.845Z,97.80
2019-03-28T05:39:15.795Z,97.90
2019-03-28T05:41:46.759Z,97.80
2019-03-28T05:44:17.686Z,97.70
2019-03-28T05:46:49.896Z,97.70
2019-03-28T05:49:20.758Z,97.60
2019-03-28T05:51:51.703Z,97.60
2019-03-28T05:54:22.548Z,97.40
2019-03-28T05:56:53.453Z,97.40
2019-03-28T05:59:24.344Z,97.20
2019-03-28T06:01:55.157Z,97.10
2019-03-28T06:04:26.064Z,97.10
2019-03-28T06:06:56.855Z,96.90
2019-03-28T06:09:27.813Z,96.80
2019-03-28T06:11:59.775Z,96.60
2019-03-28T06:14:30.694Z,96.60
2019-03-28T06:17:01.604Z,96.60
2019-03-28T06:19:32.522Z,96.40
2019-03-28T06:22:03.406Z,96.20
2019-03-28T06:24:34.354Z,95.90
2019-03-28T06:27:05.254Z,95.90
2019-03-28T06:29:36.197Z,95.90
2019-03-28T06:32:07.060Z,95.80
2019-03-28T06:34:37.944Z,95.70
2019-03-28T06:37:09.817Z,95.50
2019-03-28T06:39:40.700Z,95.40
2019-03-28T06:42:11.726Z,95.30
2019-03-28T06:44:42.638Z,95.10
2019-03-28T06:47:13.575Z,95.00
2019-03-28T06:49:44.480Z,94.70
2019-03-28T06:52:15.527Z,94.60
2019-03-28T06:54:46.420Z,94.30
2019-03-28T06:57:18.947Z,94.10
2019-03-28T06:59:50.024Z,93.80
2019-03-28T07:02:22.066Z,93.80
2019-03-28T07:04:52.953Z,93.70
2019-03-28T07:07:23.853Z,93.60
2019-03-28T07:09:54.841Z,93.40
2019-03-28T07:12:25.664Z,93.10
2019-03-28T07:15:01.314Z,93.40
2019-03-28T07:17:33.928Z,93.10
2019-03-28T07:20:05.251Z,93.20
2019-03-28T07:22:36.091Z,93.00
2019-03-28T07:25:09.120Z,93.00
2019-03-28T07:27:40.209Z,92.80
2019-03-28T07:30:16.964Z,92.70
2019-03-28T07:32:47.868Z,92.70
2019-03-28T07:35:18.792Z,92.20
2019-03-28T07:37:51.502Z,91.80
2019-03-28T07:40:22.408Z,91.70
2019-03-28T07:42:53.292Z,91.70
2019-03-28T07:45:24.240Z,91.40
2019-03-28T07:47:55.399Z,91.20
2019-03-28T07:50:26.977Z,90.70
2019-03-28T07:52:57.896Z,90.20
2019-03-28T07:55:28.796Z,90.10
2019-03-28T07:57:59.848Z,89.70
2019-03-28T08:00:30.840Z,88.30
2019-03-28T08:03:01.814Z,87.40
2019-03-28T08:05:32.750Z,86.60
2019-03-28T08:08:03.611Z,84.20
2019-03-28T08:10:34.575Z,84.40
2019-03-28T08:13:05.580Z,82.80
2019-03-28T08:15:36.566Z,83.50
2019-03-28T08:18:08.643Z,84.20
2019-03-28T08:20:39.587Z,84.20
2019-03-28T08:23:10.514Z,84.40
2019-03-28T08:25:41.806Z,83.90
2019-03-28T08:28:13.705Z,82.10
2019-03-28T08:30:45.469Z,80.00
2019-03-28T08:33:16.545Z,76.70
2019-03-28T08:35:48.495Z,73.70
2019-03-28T08:38:21.197Z,71.60
2019-03-28T08:40:52.088Z,71.50
2019-03-28T08:43:22.974Z,71.20
2019-03-28T08:45:53.882Z,69.50
2019-03-28T08:48:26.036Z,70.40
2019-03-28T08:50:56.939Z,69.20
2019-03-28T08:53:27.818Z,68.60
2019-03-28T08:55:58.718Z,68.60
2019-03-28T08:58:29.634Z,68.00
2019-03-28T09:01:00.541Z,68.60
2019-03-28T09:03:31.448Z,68.30
2019-03-28T09:06:02.430Z,68.90
2019-03-28T09:08:33.292Z,68.60
2019-03-28T09:11:04.276Z,69.00
2019-03-28T09:13:44.208Z,69.00
2019-03-28T09:16:20.597Z,68.80
2019-03-28T09:19:02.568Z,67.20
2019-03-28T09:21:33.888Z,63.00
2019-03-28T09:24:04.783Z,61.80
2019-03-28T09:26:35.648Z,58.50
2019-03-28T09:29:06.689Z,58.00
2019-03-28T09:31:37.640Z,55.80
2019-03-28T09:34:09.561Z,55.10
2019-03-28T09:36:40.592Z,54.90
2019-03-28T09:39:11.533Z,55.20
2019-03-28T09:41:42.452Z,53.40
2019-03-28T09:44:13.376Z,53.00
2019-03-28T09:46:44.260Z,52.10
2019-03-28T09:49:16.396Z,51.50
2019-03-28T09:51:47.264Z,52.00
2019-03-28T09:54:18.124Z,52.70
2019-03-28T09:56:49.133Z,53.20
2019-03-28T09:59:19.988Z,53.30
2019-03-28T10:01:50.866Z,52.70
2019-03-28T10:04:21.828Z,52.00
2019-03-28T10:06:52.644Z,51.40
2019-03-28T10:09:23.516Z,50.00
2019-03-28T10:11:54.388Z,50.00
2019-03-28T10:14:25.244Z,50.70
2019-03-28T10:16:56.702Z,51.00
2019-03-28T10:19:28.962Z,51.40
2019-03-28T10:21:59.848Z,51.70
2019-03-28T10:24:30.768Z,52.00
2019-03-28T10:27:01.698Z,52.40
2019-03-28T10:29:32.822Z,52.50
2019-03-28T10:32:04.009Z,53.00
2019-03-28T10:34:34.902Z,53.10
2019-03-28T10:37:06.084Z,52.30
2019-03-28T10:39:36.978Z,51.60
2019-03-28T10:42:07.776Z,52.40
2019-03-28T10:44:38.701Z,52.60
2019-03-28T10:47:09.590Z,53.00
2019-03-28T10:49:41.580Z,52.90
2019-03-28T10:52:12.648Z,53.20
2019-03-28T10:54:43.543Z,54.20
2019-03-28T10:57:28.911Z,54.80
2019-03-28T10:59:46.920Z,55.00
2019-03-28T11:02:19.142Z,55.60
2019-03-28T11:04:50.005Z,55.20
2019-03-28T11:07:20.872Z,55.80
2019-03-28T11:09:51.776Z,56.50
2019-03-28T11:12:22.639Z,56.50
2019-03-28T11:14:54.629Z,56.80
2019-03-28T11:17:25.476Z,56.90
2019-03-28T11:19:56.350Z,57.20
2019-03-28T11:22:27.319Z,56.80
2019-03-28T11:24:58.232Z,56.20
2019-03-28T11:27:29.108Z,55.30
2019-03-28T11:30:01.000Z,55.50
2019-03-28T11:32:31.890Z,55.70
2019-03-28T11:35:02.752Z,56.30
2019-03-28T11:37:33.632Z,56.80
2019-03-28T11:40:05.193Z,55.40
2019-03-28T11:42:36.055Z,53.80
2019-03-28T11:45:09.633Z,53.30
2019-03-28T11:47:40.757Z,52.10
2019-03-28T11:50:12.973Z,51.30
2019-03-28T11:52:43.858Z,49.90
2019-03-28T11:55:14.994Z,49.10
2019-03-28T11:57:45.992Z,48.60
2019-03-28T12:00:18.391Z,48.10
2019-03-28T12:02:49.224Z,47.20
2019-03-28T12:05:20.110Z,47.40
2019-03-28T12:07:50.995Z,47.60
2019-03-28T12:10:21.862Z,46.80
2019-03-28T12:12:52.723Z,46.40
2019-03-28T12:15:23.523Z,45.90
2019-03-28T12:17:54.404Z,46.00
2019-03-28T12:20:25.823Z,45.20
2019-03-28T12:22:56.708Z,45.50
2019-03-28T12:25:27.578Z,46.20
2019-03-28T12:28:00.404Z,46.80
2019-03-28T12:30:30.956Z,46.90
2019-03-28T12:33:01.845Z,47.40
2019-03-28T12:35:33.348Z,48.10
2019-03-28T12:38:04.216Z,49.00
2019-03-28T12:40:35.475Z,48.50
2019-03-28T12:43:06.330Z,47.60
2019-03-28T12:45:37.228Z,47.70
2019-03-28T12:48:08.136Z,47.30
2019-03-28T12:50:39.063Z,47.40
2019-03-28T12:53:11.027Z,47.60
2019-03-28T12:55:42.006Z,47.80
2019-03-28T12:58:12.878Z,47.50
2019-03-28T13:00:43.759Z,47.50
2019-03-28T13:03:14.644Z,47.40
2019-03-28T13:05:46.614Z,47.40
2019-03-28T13:08:17.775Z,47.00
2019-03-28T13:10:51.466Z,47.10
2019-03-28T13:13:22.376Z,46.70
2019-03-28T13:15:53.262Z,46.90
2019-03-28T13:18:24.304Z,46.40
2019-03-28T13:20:56.870Z,46.60
2019-03-28T13:23:28.064Z,46.30
2019-03-28T13:25:58.910Z,46.20
2019-03-28T13:28:29.791Z,45.80
2019-03-28T13:31:00.689Z,45.60
2019-03-28T13:33:31.620Z,46.70
2019-03-28T13:36:02.504Z,46.40
2019-03-28T13:38:34.341Z,46.80
2019-03-28T13:41:05.527Z,46.90
2019-03-28T13:43:36.418Z,47.10
2019-03-28T13:46:07.328Z,47.70
2019-03-28T13:48:40.468Z,47.70
2019-03-28T13:51:12.233Z,47.80
2019-03-28T13:53:43.163Z,48.00
2019-03-28T13:56:14.030Z,47.10
2019-03-28T13:58:44.862Z,47.00
2019-03-28T14:01:15.660Z,47.50
2019-03-28T14:03:46.464Z,48.10
2019-03-28T14:06:17.764Z,48.60
2019-03-28T14:08:48.572Z,48.80
2019-03-28T14:11:19.432Z,49.10
2019-03-28T14:13:52.084Z,49.50
2019-03-28T14:16:23.127Z,50.00
2019-03-28T14:18:54.536Z,50.40
2019-03-28T14:21:25.734Z,50.80
2019-03-28T14:23:56.656Z,51.10
2019-03-28T14:26:27.571Z,51.20
2019-03-28T14:28:58.412Z,50.90
2019-03-28T14:31:29.316Z,51.10
2019-03-28T14:34:00.232Z,51.20
2019-03-28T14:36:31.262Z,51.60
2019-03-28T14:39:02.153Z,51.90
2019-03-28T14:41:34.306Z,51.40
2019-03-28T14:44:05.386Z,51.40
2019-03-28T14:46:36.266Z,51.80
2019-03-28T14:49:07.261Z,51.70
2019-03-28T14:51:39.993Z,51.30
2019-03-28T14:54:10.962Z,51.20
2019-03-28T14:56:42.666Z,51.10
2019-03-28T14:59:15.010Z,51.50
2019-03-28T15:01:45.887Z,51.50
2019-03-28T15:04:16.715Z,51.70
2019-03-28T15:06:47.647Z,51.80
2019-03-28T15:09:18.522Z,51.60
2019-03-28T15:11:49.408Z,51.70
2019-03-28T15:14:20.686Z,51.70
2019-03-28T15:17:10.349Z,50.90
2019-03-28T15:19:41.236Z,51.30
2019-03-28T15:22:13.534Z,51.30
2019-03-28T15:24:44.404Z,51.30
2019-03-28T15:27:15.353Z,51.50
2019-03-28T15:29:46.454Z,51.60
2019-03-28T15:32:17.420Z,51.70
2019-03-28T15:34:49.329Z,51.80
2019-03-28T15:37:21.277Z,52.30
2019-03-28T15:39:52.325Z,52.50
2019-03-28T15:42:23.106Z,52.40
2019-03-28T15:44:55.010Z,52.50
2019-03-28T15:47:25.761Z,52.80
2019-03-28T15:49:56.586Z,52.80
2019-03-28T15:52:27.749Z,53.20
2019-03-28T15:54:58.703Z,53.60
2019-03-28T15:57:30.663Z,54.50
2019-03-28T16:00:01.555Z,54.80
2019-03-28T16:02:32.552Z,54.10
2019-03-28T16:05:03.480Z,54.60
2019-03-28T16:07:34.379Z,55.00
2019-03-28T16:10:06.463Z,55.20
2019-03-28T16:12:37.342Z,55.50
2019-03-28T16:15:08.745Z,55.90
2019-03-28T16:17:39.660Z,56.30
2019-03-28T16:20:11.030Z,56.50
2019-03-28T16:22:43.328Z,56.80
2019-03-28T16:25:15.286Z,57.10
2019-03-28T16:27:46.210Z,57.50
2019-03-28T16:30:18.726Z,57.80
2019-03-28T16:32:49.631Z,58.00
2019-03-28T16:35:21.387Z,58.40
2019-03-28T16:37:53.730Z,58.80
2019-03-28T16:40:24.767Z,59.00
2019-03-28T16:42:55.654Z,59.30
2019-03-28T16:45:26.540Z,60.10
2019-03-28T16:47:57.447Z,60.20
2019-03-28T16:50:28.407Z,60.60
2019-03-28T16:52:59.244Z,61.00
2019-03-28T16:55:30.112Z,61.40
2019-03-28T16:58:00.964Z,61.80
2019-03-28T17:00:36.896Z,62.20
2019-03-28T17:03:08.857Z,62.70
2019-03-28T17:05:41.657Z,63.10
2019-03-28T17:08:12.842Z,63.60
2019-03-28T17:10:48.517Z,64.00
2019-03-28T17:13:26.444Z,64.40
2019-03-28T17:15:57.364Z,65.00
2019-03-28T17:18:28.255Z,65.20
2019-03-28T17:21:02.760Z,65.70
2019-03-28T17:23:34.412Z,66.30
2019-03-28T17:26:05.639Z,66.80
2019-03-28T17:28:39.989Z,67.20
2019-03-28T17:31:10.885Z,67.50
2019-03-28T17:33:41.820Z,68.10
2019-03-28T17:36:12.717Z,68.70
2019-03-28T17:38:44.427Z,69.20
2019-03-28T17:41:15.956Z,69.60
2019-03-28T17:43:55.576Z,69.70
2019-03-28T17:46:26.422Z,70.00
2019-03-28T17:48:57.780Z,70.30
2019-03-28T17:51:30.936Z,70.90
2019-03-28T17:54:02.494Z,71.30
2019-03-28T17:56:33.392Z,71.70
2019-03-28T17:59:04.712Z,72.40
2019-03-28T18:01:36.142Z,72.50
2019-03-28T18:04:07.052Z,72.80
2019-03-28T18:06:38.367Z,73.10
2019-03-28T18:09:11.066Z,73.40
2019-03-28T18:11:42.518Z,73.70
2019-03-28T18:14:13.368Z,74.00
2019-03-28T18:16:44.384Z,74.60
2019-03-28T18:19:15.254Z,75.00
2019-03-28T18:21:46.541Z,75.10
2019-03-28T18:24:17.502Z,75.10
2019-03-28T18:26:48.404Z,75.40
2019-03-28T18:29:19.417Z,76.00
2019-03-28T18:31:52.570Z,76.20
2019-03-28T18:34:22.806Z,76.80
2019-03-28T18:36:53.704Z,76.60
2019-03-28T18:39:24.547Z,76.70
2019-03-28T18:41:56.686Z,77.20
2019-03-28T18:44:27.683Z,77.10
2019-03-28T18:46:58.617Z,77.30
2019-03-28T18:49:31.092Z,77.60
2019-03-28T18:52:02.183Z,77.80
2019-03-28T18:54:33.118Z,78.00
2019-03-28T18:57:04.040Z,78.30
2019-03-28T18:59:34.911Z,78.30
2019-03-28T19:02:05.722Z,78.30
2019-03-28T19:04:36.654Z,78.50
2019-03-28T19:07:07.540Z,78.80
2019-03-28T19:09:38.496Z,78.90
2019-03-28T19:12:09.261Z,79.20
2019-03-28T19:14:40.176Z,79.70
2019-03-28T19:17:11.072Z,79.70
2019-03-28T19:19:41.990Z,80.00
2019-03-28T19:22:12.888Z,80.10
2019-03-28T19:24:43.774Z,80.50
2019-03-28T19:27:14.679Z,81.00
2019-03-28T19:29:45.572Z,81.10
2019-03-28T19:32:16.662Z,81.30
2019-03-28T19:34:47.578Z,81.60
2019-03-28T19:37:18.701Z,81.80
2019-03-28T19:39:56.808Z,82.20
2019-03-28T19:42:27.668Z,82.20
2019-03-28T19:44:58.538Z,82.40
2019-03-28T19:47:29.483Z,82.80
2019-03-28T19:50:00.361Z,83.10
2019-03-28T19:52:31.320Z,83.30
2019-03-28T19:55:03.446Z,83.50
2019-03-28T19:57:34.482Z,83.80
2019-03-28T20:00:07.648Z,84.10
2019-03-28T20:02:38.578Z,84.20
2019-03-28T20:05:09.701Z,84.50
2019-03-28T20:07:40.608Z,84.70
2019-03-28T20:10:16.581Z,85.10
2019-03-28T20:12:44.753Z,85.30
2019-03-28T20:15:16.802Z,85.60
2019-03-28T20:17:48.082Z,85.80
2019-03-28T20:20:19.016Z,86.00
2019-03-28T20:22:49.916Z,86.30
2019-03-28T20:25:21.708Z,86.50
2019-03-28T20:27:52.692Z,86.70
2019-03-28T20:30:25.205Z,87.10
2019-03-28T20:32:56.026Z,87.20
2019-03-28T20:35:26.879Z,87.40
2019-03-28T20:37:57.766Z,87.60
2019-03-28T20:40:28.670Z,87.80
2019-03-28T20:43:00.243Z,88.00
2019-03-28T20:45:31.728Z,88.30
2019-03-28T20:48:02.635Z,88.40
2019-03-28T20:50:33.524Z,88.60
2019-03-28T20:53:04.457Z,88.80
2019-03-28T20:55:36.910Z,88.90
2019-03-28T20:58:08.304Z,89.10
2019-03-28T21:00:44.340Z,89.30
2019-03-28T21:03:15.844Z,90.00
2019-03-28T21:05:46.706Z,89.80
2019-03-28T21:08:17.627Z,89.90
2019-03-28T21:10:48.516Z,89.90
2019-03-28T21:13:19.407Z,90.00
2019-03-28T21:15:50.270Z,90.10
2019-03-28T21:18:21.173Z,90.20
2019-03-28T21:20:52.085Z,90.20
2019-03-28T21:23:23.154Z,90.30
2019-03-28T21:25:53.980Z,90.50
2019-03-28T21:28:26.442Z,90.60
2019-03-28T21:30:59.053Z,90.70
2019-03-28T21:33:29.838Z,91.10
2019-03-28T21:36:00.731Z,91.00
2019-03-28T21:38:31.602Z,91.10
2019-03-28T21:41:02.482Z,91.20
2019-03-28T21:43:33.362Z,91.40
2019-03-28T21:46:04.290Z,91.50
2019-03-28T21:48:35.140Z,91.50
2019-03-28T21:51:06.028Z,91.60
2019-03-28T21:53:36.978Z,91.70
2019-03-28T21:56:07.854Z,91.80
2019-03-28T21:58:40.210Z,91.80
2019-03-28T22:01:11.086Z,92.00
2019-03-28T22:03:43.098Z,92.10
2019-03-28T22:06:14.608Z,92.20
2019-03-28T22:08:45.496Z,92.30
2019-03-28T22:11:16.367Z,92.40
2019-03-28T22:13:47.865Z,92.40
2019-03-28T22:16:18.790Z,92.50
2019-03-28T22:18:50.650Z,92.60
2019-03-28T22:21:21.537Z,92.60
2019-03-28T22:23:52.428Z,92.80
2019-03-28T22:26:23.316Z,92.80
2019-03-28T22:28:55.345Z,93.00
2019-03-28T22:31:26.354Z,93.00
2019-03-28T22:33:57.220Z,93.20
2019-03-28T22:36:28.152Z,93.20
2019-03-28T22:38:59.050Z,93.30
2019-03-28T22:41:29.952Z,93.40
2019-03-28T22:44:00.814Z,93.40
2019-03-28T22:46:31.696Z,93.50
2019-03-28T22:49:02.593Z,93.50
2019-03-28T22:51:33.436Z,94.00
2019-03-28T22:54:04.312Z,93.70
2019-03-28T22:56:35.202Z,93.80
2019-03-28T22:59:07.316Z,93.90
2019-03-28T23:01:38.198Z,94.00
2019-03-28T23:04:11.137Z,94.00
2019-03-28T23:06:41.661Z,94.20
2019-03-28T23:09:12.541Z,94.30
2019-03-28T23:11:43.500Z,94.30
2019-03-28T23:14:15.656Z,94.30
2019-03-28T23:16:46.530Z,94.40
2019-03-28T23:19:17.340Z,94.30
2019-03-28T23:21:48.246Z,94.50
2019-03-28T23:24:19.112Z,94.50
2019-03-28T23:26:50.390Z,94.60
2019-03-28T23:29:22.458Z,94.70
2019-03-28T23:31:53.342Z,94.80
2019-03-28T23:34:24.370Z,94.70
2019-03-28T23:36:55.377Z,94.90
2019-03-28T23:39:26.260Z,95.00
2019-03-28T23:41:58.302Z,95.10
2019-03-28T23:44:30.282Z,95.10
2019-03-28T23:50:28.226Z,95.20
2019-03-28T23:52:59.100Z,95.20
2019-03-28T23:55:29.998Z,95.30
2019-03-28T23:58:00.860Z,95.30
